sensor_id;sensor_type;location;lat;lon;timestamp;pressure;altitude;pressure_sealevel;temperature;humidity
54262;BME280;40174;52.364;6.452;2023-02-04T00:02:08;102890.91;;;5.38;100.00
54262;BME280;40174;52.364;6.452;2023-02-04T00:04:35;102892.72;;;5.36;100.00
54262;BME280;40174;52.364;6.452;2023-02-04T00:07:02;102884.91;;;5.33;100.00
54262;BME280;40174;52.364;6.452;2023-02-04T00:09:28;102891.06;;;5.32;100.00
54262;BME280;40174;52.364;6.452;2023-02-04T00:11:56;102894.66;;;5.29;100.00
54262;BME280;40174;52.364;6.452;2023-02-04T00:14:23;102894.69;;;5.26;100.00
54262;BME280;40174;52.364;6.452;2023-02-04T00:16:50;102889.41;;;5.29;100.00
54262;BME280;40174;52.364;6.452;2023-02-04T00:19:16;102889.44;;;5.28;100.00
54262;BME280;40174;52.364;6.452;2023-02-04T00:21:43;102900.78;;;5.27;100.00
54262;BME280;40174;52.364;6.452;2023-02-04T00:24:09;102897.31;;;5.26;100.00
54262;BME280;40174;52.364;6.452;2023-02-04T00:26:36;102902.66;;;5.23;100.00
54262;BME280;40174;52.364;6.452;2023-02-04T00:29:04;102903.50;;;5.24;100.00
54262;BME280;40174;52.364;6.452;2023-02-04T00:31:30;102904.38;;;5.24;100.00
54262;BME280;40174;52.364;6.452;2023-02-04T00:34:00;102896.59;;;5.21;100.00
54262;BME280;40174;52.364;6.452;2023-02-04T00:36:26;102907.06;;;5.21;100.00
54262;BME280;40174;52.364;6.452;2023-02-04T00:38:53;102905.41;;;5.18;100.00
54262;BME280;40174;52.364;6.452;2023-02-04T00:41:19;102909.72;;;5.19;100.00
54262;BME280;40174;52.364;6.452;2023-02-04T00:43:46;102914.09;;;5.19;100.00
54262;BME280;40174;52.364;6.452;2023-02-04T00:46:14;102919.38;;;5.17;100.00
54262;BME280;40174;52.364;6.452;2023-02-04T00:48:40;102926.41;;;5.15;100.00
54262;BME280;40174;52.364;6.452;2023-02-04T00:51:07;102927.34;;;5.14;100.00
54262;BME280;40174;52.364;6.452;2023-02-04T00:53:34;102929.97;;;5.13;100.00
54262;BME280;40174;52.364;6.452;2023-02-04T00:56:00;102942.22;;;5.14;100.00
54262;BME280;40174;52.364;6.452;2023-02-04T00:58:27;102938.75;;;5.12;100.00
54262;BME280;40174;52.364;6.452;2023-02-04T01:00:53;102940.63;;;5.07;100.00
54262;BME280;40174;52.364;6.452;2023-02-04T01:03:21;102938.88;;;5.07;100.00
54262;BME280;40174;52.364;6.452;2023-02-04T01:05:48;102940.66;;;5.05;100.00
54262;BME280;40174;52.364;6.452;2023-02-04T01:08:15;102941.44;;;5.09;100.00
54262;BME280;40174;52.364;6.452;2023-02-04T01:10:41;102949.34;;;5.07;100.00
54262;BME280;40174;52.364;6.452;2023-02-04T01:13:08;102955.44;;;5.08;100.00
54262;BME280;40174;52.364;6.452;2023-02-04T01:15:35;102949.34;;;5.07;100.00
54262;BME280;40174;52.364;6.452;2023-02-04T01:18:02;102948.50;;;5.07;100.00
54262;BME280;40174;52.364;6.452;2023-02-04T01:20:30;102959.00;;;5.05;100.00
54262;BME280;40174;52.364;6.452;2023-02-04T01:22:56;102959.00;;;5.05;100.00
54262;BME280;40174;52.364;6.452;2023-02-04T01:25:23;102959.03;;;5.04;100.00
54262;BME280;40174;52.364;6.452;2023-02-04T01:27:49;102957.28;;;5.04;100.00
54262;BME280;40174;52.364;6.452;2023-02-04T01:30:16;102964.22;;;5.07;100.00
54262;BME280;40174;52.364;6.452;2023-02-04T01:32:43;102960.69;;;5.08;100.00
54262;BME280;40174;52.364;6.452;2023-02-04T01:35:09;102956.38;;;5.05;100.00
54262;BME280;40174;52.364;6.452;2023-02-04T01:37:38;102959.88;;;5.06;100.00
54262;BME280;40174;52.364;6.452;2023-02-04T01:40:06;102972.13;;;5.04;100.00
54262;BME280;40174;52.364;6.452;2023-02-04T01:42:33;102974.75;;;5.05;100.00
54262;BME280;40174;52.364;6.452;2023-02-04T01:45:00;102966.88;;;5.05;100.00
54262;BME280;40174;52.364;6.452;2023-02-04T01:47:27;102968.66;;;5.03;100.00
54262;BME280;40174;52.364;6.452;2023-02-04T01:49:54;102963.41;;;5.03;100.00
54262;BME280;40174;52.364;6.452;2023-02-04T01:52:21;102970.44;;;5.03;100.00
54262;BME280;40174;52.364;6.452;2023-02-04T01:54:51;102972.97;;;5.06;100.00
54262;BME280;40174;52.364;6.452;2023-02-04T01:57:18;102979.06;;;5.06;100.00
54262;BME280;40174;52.364;6.452;2023-02-04T01:59:46;102984.38;;;5.05;100.00
54262;BME280;40174;52.364;6.452;2023-02-04T02:02:38;102979.22;;;5.00;100.00
54262;BME280;40174;52.364;6.452;2023-02-04T02:05:07;102980.94;;;5.01;100.00
54262;BME280;40174;52.364;6.452;2023-02-04T02:07:34;103000.97;;;5.04;100.00
54262;BME280;40174;52.364;6.452;2023-02-04T02:10:03;102993.19;;;5.00;100.00
54262;BME280;40174;52.364;6.452;2023-02-04T02:12:30;102998.47;;;4.99;100.00
54262;BME280;40174;52.364;6.452;2023-02-04T02:14:58;102989.66;;;5.02;100.00
54262;BME280;40174;52.364;6.452;2023-02-04T02:17:25;103006.28;;;5.00;100.00
54262;BME280;40174;52.364;6.452;2023-02-04T02:19:52;102993.25;;;4.97;100.00
54262;BME280;40174;52.364;6.452;2023-02-04T02:22:23;102996.66;;;5.01;100.00
54262;BME280;40174;52.364;6.452;2023-02-04T02:24:53;102997.50;;;5.03;100.00
54262;BME280;40174;52.364;6.452;2023-02-04T02:27:21;102997.53;;;5.02;100.00
54262;BME280;40174;52.364;6.452;2023-02-04T02:29:48;102985.38;;;4.97;100.00
54262;BME280;40174;52.364;6.452;2023-02-04T02:32:16;102996.75;;;4.98;100.00
54262;BME280;40174;52.364;6.452;2023-02-04T02:34:45;103001.06;;;5.00;100.00
54262;BME280;40174;52.364;6.452;2023-02-04T02:37:12;103001.00;;;5.02;100.00
54262;BME280;40174;52.364;6.452;2023-02-04T02:39:40;103000.13;;;5.03;100.00
54262;BME280;40174;52.364;6.452;2023-02-04T02:42:14;102993.22;;;4.99;100.00
54262;BME280;40174;52.364;6.452;2023-02-04T02:44:43;103003.69;;;5.00;100.00
54262;BME280;40174;52.364;6.452;2023-02-04T02:47:12;102996.69;;;4.99;100.00
54262;BME280;40174;52.364;6.452;2023-02-04T02:49:40;103002.81;;;5.00;100.00
54262;BME280;40174;52.364;6.452;2023-02-04T02:52:09;103009.78;;;4.99;100.00
54262;BME280;40174;52.364;6.452;2023-02-04T02:54:37;103011.59;;;4.97;100.00
54262;BME280;40174;52.364;6.452;2023-02-04T02:57:10;103009.84;;;4.98;100.00
54262;BME280;40174;52.364;6.452;2023-02-04T02:59:39;103022.03;;;4.99;100.00
54262;BME280;40174;52.364;6.452;2023-02-04T03:02:06;103025.63;;;4.95;100.00
54262;BME280;40174;52.364;6.452;2023-02-04T03:04:39;103022.16;;;4.94;100.00
54262;BME280;40174;52.364;6.452;2023-02-04T03:07:08;103024.78;;;4.93;100.00
54262;BME280;40174;52.364;6.452;2023-02-04T03:09:36;103025.69;;;4.93;100.00
54262;BME280;40174;52.364;6.452;2023-02-04T03:12:03;103024.78;;;4.93;100.00
54262;BME280;40174;52.364;6.452;2023-02-04T03:14:31;103026.56;;;4.91;100.00
54262;BME280;40174;52.364;6.452;2023-02-04T03:17:01;103031.88;;;4.89;100.00
54262;BME280;40174;52.364;6.452;2023-02-04T03:19:29;103035.44;;;4.87;100.00
54262;BME280;40174;52.364;6.452;2023-02-04T03:21:56;103027.50;;;4.88;100.00
54262;BME280;40174;52.364;6.452;2023-02-04T03:24:23;103032.75;;;4.88;100.00
54262;BME280;40174;52.364;6.452;2023-02-04T03:26:50;103034.44;;;4.91;100.00
54262;BME280;40174;52.364;6.452;2023-02-04T03:29:17;103035.38;;;4.88;100.00
54262;BME280;40174;52.364;6.452;2023-02-04T03:31:44;103040.63;;;4.88;100.00
54262;BME280;40174;52.364;6.452;2023-02-04T03:34:12;103050.25;;;4.86;100.00
54262;BME280;40174;52.364;6.452;2023-02-04T03:36:38;103052.03;;;4.86;100.00
54262;BME280;40174;52.364;6.452;2023-02-04T03:39:05;103053.78;;;4.85;100.00
54262;BME280;40174;52.364;6.452;2023-02-04T03:41:31;103057.34;;;4.83;100.00
54262;BME280;40174;52.364;6.452;2023-02-04T03:43:58;103056.44;;;4.84;100.00
54262;BME280;40174;52.364;6.452;2023-02-04T03:46:25;103054.75;;;4.81;100.00
54262;BME280;40174;52.364;6.452;2023-02-04T03:48:52;103054.81;;;4.78;100.00
54262;BME280;40174;52.364;6.452;2023-02-04T03:51:20;103051.31;;;4.77;100.00
54262;BME280;40174;52.364;6.452;2023-02-04T03:53:47;103054.84;;;4.76;100.00
54262;BME280;40174;52.364;6.452;2023-02-04T03:56:14;103061.88;;;4.74;100.00
54262;BME280;40174;52.364;6.452;2023-02-04T03:58:40;103054.94;;;4.72;100.00
54262;BME280;40174;52.364;6.452;2023-02-04T04:01:07;103054.91;;;4.73;100.00
54262;BME280;40174;52.364;6.452;2023-02-04T04:03:33;103054.91;;;4.73;100.00
54262;BME280;40174;52.364;6.452;2023-02-04T04:06:00;103065.41;;;4.73;100.00
54262;BME280;40174;52.364;6.452;2023-02-04T04:08:30;103068.03;;;4.73;100.00
54262;BME280;40174;52.364;6.452;2023-02-04T04:10:57;103057.56;;;4.70;100.00
54262;BME280;40174;52.364;6.452;2023-02-04T04:13:24;103068.91;;;4.72;100.00
54262;BME280;40174;52.364;6.452;2023-02-04T04:15:50;103071.56;;;4.71;100.00
54262;BME280;40174;52.364;6.452;2023-02-04T04:18:17;103075.88;;;4.73;100.00
54262;BME280;40174;52.364;6.452;2023-02-04T04:20:43;103066.25;;;4.74;100.00
54262;BME280;40174;52.364;6.452;2023-02-04T04:23:10;103078.50;;;4.72;100.00
54262;BME280;40174;52.364;6.452;2023-02-04T04:25:38;103077.66;;;4.71;100.00
54262;BME280;40174;52.364;6.452;2023-02-04T04:28:05;103077.66;;;4.71;100.00
54262;BME280;40174;52.364;6.452;2023-02-04T04:30:31;103084.63;;;4.72;100.00
54262;BME280;40174;52.364;6.452;2023-02-04T04:32:58;103086.34;;;4.73;100.00
54262;BME280;40174;52.364;6.452;2023-02-04T04:35:25;103089.84;;;4.74;100.00
54262;BME280;40174;52.364;6.452;2023-02-04T04:37:51;103089.84;;;4.72;100.00
54262;BME280;40174;52.364;6.452;2023-02-04T04:40:18;103089.91;;;4.71;100.00
54262;BME280;40174;52.364;6.452;2023-02-04T04:42:46;103098.63;;;4.70;100.00
54262;BME280;40174;52.364;6.452;2023-02-04T04:45:13;103110.88;;;4.71;100.00
54262;BME280;40174;52.364;6.452;2023-02-04T04:47:39;103104.78;;;4.69;100.00
54262;BME280;40174;52.364;6.452;2023-02-04T04:50:07;103099.50;;;4.70;100.00
54262;BME280;40174;52.364;6.452;2023-02-04T04:52:33;103103.00;;;4.71;100.00
54262;BME280;40174;52.364;6.452;2023-02-04T04:55:00;103112.56;;;4.72;100.00
54262;BME280;40174;52.364;6.452;2023-02-04T04:57:26;103118.75;;;4.69;100.00
54262;BME280;40174;52.364;6.452;2023-02-04T04:59:54;103122.22;;;4.70;100.00
54262;BME280;40174;52.364;6.452;2023-02-04T05:02:21;103122.25;;;4.68;100.00
54262;BME280;40174;52.364;6.452;2023-02-04T05:04:47;103131.84;;;4.68;100.00
54262;BME280;40174;52.364;6.452;2023-02-04T05:07:14;103131.00;;;4.67;100.00
54262;BME280;40174;52.364;6.452;2023-02-04T05:09:41;103140.63;;;4.67;100.00
54262;BME280;40174;52.364;6.452;2023-02-04T05:12:07;103140.63;;;4.67;100.00
54262;BME280;40174;52.364;6.452;2023-02-04T05:14:34;103141.50;;;4.66;100.00
54262;BME280;40174;52.364;6.452;2023-02-04T05:17:02;103134.56;;;4.65;100.00
54262;BME280;40174;52.364;6.452;2023-02-04T05:19:28;103132.78;;;4.67;100.00
54262;BME280;40174;52.364;6.452;2023-02-04T05:21:55;103142.34;;;4.68;100.00
54262;BME280;40174;52.364;6.452;2023-02-04T05:24:25;103158.03;;;4.69;100.00
54262;BME280;40174;52.364;6.452;2023-02-04T05:26:52;103147.56;;;4.68;100.00
54262;BME280;40174;52.364;6.452;2023-02-04T05:29:19;103146.75;;;4.66;100.00
54262;BME280;40174;52.364;6.452;2023-02-04T05:31:45;103144.13;;;4.66;100.00
54262;BME280;40174;52.364;6.452;2023-02-04T05:34:13;103149.34;;;4.66;100.00
54262;BME280;40174;52.364;6.452;2023-02-04T05:36:40;103144.16;;;4.64;100.00
54262;BME280;40174;52.364;6.452;2023-02-04T05:39:06;103130.19;;;4.64;100.00
54262;BME280;40174;52.364;6.452;2023-02-04T05:41:33;103139.81;;;4.63;100.00
54262;BME280;40174;52.364;6.452;2023-02-04T05:44:00;103139.78;;;4.65;100.00
54262;BME280;40174;52.364;6.452;2023-02-04T05:46:26;103140.66;;;4.64;100.00
54262;BME280;40174;52.364;6.452;2023-02-04T05:48:53;103144.16;;;4.64;100.00
54262;BME280;40174;52.364;6.452;2023-02-04T05:51:21;103142.41;;;4.65;100.00
54262;BME280;40174;52.364;6.452;2023-02-04T05:53:47;103144.16;;;4.64;100.00
54262;BME280;40174;52.364;6.452;2023-02-04T05:56:14;103145.06;;;4.62;100.00
54262;BME280;40174;52.364;6.452;2023-02-04T05:58:41;103144.19;;;4.63;100.00
54262;BME280;40174;52.364;6.452;2023-02-04T06:01:08;103153.81;;;4.62;100.00
54262;BME280;40174;52.364;6.452;2023-02-04T06:03:35;103148.53;;;4.64;100.00
54262;BME280;40174;52.364;6.452;2023-02-04T06:06:01;103157.28;;;4.64;100.00
54262;BME280;40174;52.364;6.452;2023-02-04T06:08:29;103158.13;;;4.63;100.00
54262;BME280;40174;52.364;6.452;2023-02-04T06:10:56;103157.28;;;4.63;100.00
54262;BME280;40174;52.364;6.452;2023-02-04T06:13:22;103160.78;;;4.62;100.00
54262;BME280;40174;52.364;6.452;2023-02-04T06:15:49;103168.63;;;4.62;100.00
54262;BME280;40174;52.364;6.452;2023-02-04T06:18:16;103170.41;;;4.61;100.00
54262;BME280;40174;52.364;6.452;2023-02-04T06:20:42;103169.56;;;4.59;100.00
54262;BME280;40174;52.364;6.452;2023-02-04T06:23:09;103180.91;;;4.59;100.00
54262;BME280;40174;52.364;6.452;2023-02-04T06:25:36;103191.34;;;4.61;100.00
54262;BME280;40174;52.364;6.452;2023-02-04T06:28:03;103194.84;;;4.62;100.00
54262;BME280;40174;52.364;6.452;2023-02-04T06:30:30;103196.66;;;4.58;100.00
54262;BME280;40174;52.364;6.452;2023-02-04T06:32:56;103199.28;;;4.58;100.00
54262;BME280;40174;52.364;6.452;2023-02-04T06:35:23;103207.13;;;4.58;100.00
54262;BME280;40174;52.364;6.452;2023-02-04T06:37:50;103198.44;;;4.57;100.00
54262;BME280;40174;52.364;6.452;2023-02-04T06:40:16;103194.06;;;4.56;100.00
54262;BME280;40174;52.364;6.452;2023-02-04T06:42:44;103201.94;;;4.55;100.00
54262;BME280;40174;52.364;6.452;2023-02-04T06:45:11;103200.22;;;4.54;100.00
54262;BME280;40174;52.364;6.452;2023-02-04T06:47:38;103195.81;;;4.56;100.00
54262;BME280;40174;52.364;6.452;2023-02-04T06:50:05;103205.47;;;4.54;100.00
54262;BME280;40174;52.364;6.452;2023-02-04T06:52:31;103201.06;;;4.54;100.00
54262;BME280;40174;52.364;6.452;2023-02-04T06:54:58;103206.31;;;4.54;100.00
54262;BME280;40174;52.364;6.452;2023-02-04T06:57:24;103200.22;;;4.52;100.00
54262;BME280;40174;52.364;6.452;2023-02-04T06:59:52;103211.59;;;4.53;100.00
54262;BME280;40174;52.364;6.452;2023-02-04T07:02:19;103209.84;;;4.53;100.00
54262;BME280;40174;52.364;6.452;2023-02-04T07:04:46;103215.94;;;4.54;100.00
54262;BME280;40174;52.364;6.452;2023-02-04T07:07:13;103220.31;;;4.53;100.00
54262;BME280;40174;52.364;6.452;2023-02-04T07:09:40;103222.06;;;4.53;100.00
54262;BME280;40174;52.364;6.452;2023-02-04T07:12:06;103226.41;;;4.54;100.00
54262;BME280;40174;52.364;6.452;2023-02-04T07:14:33;103222.94;;;4.52;100.00
54262;BME280;40174;52.364;6.452;2023-02-04T07:17:01;103224.72;;;4.50;100.00
54262;BME280;40174;52.364;6.452;2023-02-04T07:19:28;103243.06;;;4.50;100.00
54262;BME280;40174;52.364;6.452;2023-02-04T07:21:54;103239.59;;;4.49;100.00
54262;BME280;40174;52.364;6.452;2023-02-04T07:24:21;103240.44;;;4.50;100.00
54262;BME280;40174;52.364;6.452;2023-02-04T07:26:48;103244.81;;;4.51;100.00
54262;BME280;40174;52.364;6.452;2023-02-04T07:29:15;103250.03;;;4.51;100.00
54262;BME280;40174;52.364;6.452;2023-02-04T07:31:43;103245.69;;;4.50;100.00
54262;BME280;40174;52.364;6.452;2023-02-04T07:34:11;103253.59;;;4.47;100.00
54262;BME280;40174;52.364;6.452;2023-02-04T07:36:38;103257.13;;;4.44;100.00
54262;BME280;40174;52.364;6.452;2023-02-04T07:39:04;103260.63;;;4.42;100.00
54262;BME280;40174;52.364;6.452;2023-02-04T07:41:31;103268.56;;;4.38;100.00
54262;BME280;40174;52.364;6.452;2023-02-04T07:43:58;103268.56;;;4.37;100.00
54262;BME280;40174;52.364;6.452;2023-02-04T07:46:24;103266.84;;;4.36;100.00
54262;BME280;40174;52.364;6.452;2023-02-04T07:48:51;103267.78;;;4.33;100.00
54262;BME280;40174;52.364;6.452;2023-02-04T07:51:19;103280.00;;;4.33;100.00
54262;BME280;40174;52.364;6.452;2023-02-04T07:53:45;103279.13;;;4.32;100.00
54262;BME280;40174;52.364;6.452;2023-02-04T07:56:12;103279.09;;;4.34;100.00
54262;BME280;40174;52.364;6.452;2023-02-04T07:58:39;103280.88;;;4.33;100.00
54262;BME280;40174;52.364;6.452;2023-02-04T08:01:05;103285.19;;;4.36;100.00
54262;BME280;40174;52.364;6.452;2023-02-04T08:03:32;103293.03;;;4.36;100.00
54262;BME280;40174;52.364;6.452;2023-02-04T08:05:58;103293.03;;;4.37;100.00
54262;BME280;40174;52.364;6.452;2023-02-04T08:08:27;103306.13;;;4.37;100.00
54262;BME280;40174;52.364;6.452;2023-02-04T08:10:53;103302.59;;;4.40;100.00
54262;BME280;40174;52.364;6.452;2023-02-04T08:13:20;103309.53;;;4.43;100.00
54262;BME280;40174;52.364;6.452;2023-02-04T08:15:46;103312.13;;;4.44;100.00
54262;BME280;40174;52.364;6.452;2023-02-04T08:18:13;103319.06;;;4.47;100.00
54262;BME280;40174;52.364;6.452;2023-02-04T08:20:40;103316.41;;;4.48;100.00
54262;BME280;40174;52.364;6.452;2023-02-04T08:23:06;103319.84;;;4.52;100.00
54262;BME280;40174;52.364;6.452;2023-02-04T08:25:34;103325.94;;;4.54;100.00
54262;BME280;40174;52.364;6.452;2023-02-04T08:28:01;103325.09;;;4.53;100.00
54262;BME280;40174;52.364;6.452;2023-02-04T08:30:27;103330.25;;;4.56;100.00
54262;BME280;40174;52.364;6.452;2023-02-04T08:32:54;103331.94;;;4.61;100.00
54262;BME280;40174;52.364;6.452;2023-02-04T08:35:21;103341.53;;;4.62;100.00
54262;BME280;40174;52.364;6.452;2023-02-04T08:37:47;103341.50;;;4.63;100.00
54262;BME280;40174;52.364;6.452;2023-02-04T08:40:14;103338.88;;;4.65;100.00
54262;BME280;40174;52.364;6.452;2023-02-04T08:42:42;103331.88;;;4.67;100.00
54262;BME280;40174;52.364;6.452;2023-02-04T08:45:09;103330.09;;;4.69;100.00
54262;BME280;40174;52.364;6.452;2023-02-04T08:47:35;103336.13;;;4.74;100.00
54262;BME280;40174;52.364;6.452;2023-02-04T08:50:02;103338.69;;;4.77;100.00
54262;BME280;40174;52.364;6.452;2023-02-04T08:52:29;103343.84;;;4.82;100.00
54262;BME280;40174;52.364;6.452;2023-02-04T08:54:55;103337.66;;;4.86;100.00
54262;BME280;40174;52.364;6.452;2023-02-04T08:57:22;103345.50;;;4.87;100.00
54262;BME280;40174;52.364;6.452;2023-02-04T08:59:50;103342.81;;;4.93;100.00
54262;BME280;40174;52.364;6.452;2023-02-04T09:02:16;103345.34;;;4.98;100.00
54262;BME280;40174;52.364;6.452;2023-02-04T09:04:43;103347.03;;;5.00;100.00
54262;BME280;40174;52.364;6.452;2023-02-04T09:07:10;103350.53;;;5.01;100.00
54262;BME280;40174;52.364;6.452;2023-02-04T09:09:36;103356.59;;;5.03;100.00
54262;BME280;40174;52.364;6.452;2023-02-04T09:12:03;103351.31;;;5.06;100.00
54262;BME280;40174;52.364;6.452;2023-02-04T09:14:29;103350.38;;;5.09;100.00
54262;BME280;40174;52.364;6.452;2023-02-04T09:16:57;103356.44;;;5.12;100.00
54262;BME280;40174;52.364;6.452;2023-02-04T09:19:24;103360.78;;;5.15;100.00
54262;BME280;40174;52.364;6.452;2023-02-04T09:21:50;103365.09;;;5.17;100.00
54262;BME280;40174;52.364;6.452;2023-02-04T09:24:17;103364.16;;;5.20;100.00
54262;BME280;40174;52.364;6.452;2023-02-04T09:26:44;103369.41;;;5.21;100.00
54262;BME280;40174;52.364;6.452;2023-02-04T09:29:11;103369.38;;;5.23;100.00
54262;BME280;40174;52.364;6.452;2023-02-04T09:31:37;103364.97;;;5.25;100.00
54262;BME280;40174;52.364;6.452;2023-02-04T09:34:05;103358.81;;;5.28;100.00
54262;BME280;40174;52.364;6.452;2023-02-04T09:36:32;103362.22;;;5.31;100.00
54262;BME280;40174;52.364;6.452;2023-02-04T09:39:03;103359.59;;;5.33;100.00
54262;BME280;40174;52.364;6.452;2023-02-04T09:41:30;103370.84;;;5.38;100.00
54262;BME280;40174;52.364;6.452;2023-02-04T09:43:58;103366.41;;;5.43;100.00
54262;BME280;40174;52.364;6.452;2023-02-04T09:46:26;103362.84;;;5.46;100.00
54262;BME280;40174;52.364;6.452;2023-02-04T09:48:54;103366.25;;;5.51;100.00
54262;BME280;40174;52.364;6.452;2023-02-04T09:51:25;103385.44;;;5.54;100.00
54262;BME280;40174;52.364;6.452;2023-02-04T09:53:57;103389.75;;;5.57;100.00
54262;BME280;40174;52.364;6.452;2023-02-04T09:56:27;103377.47;;;5.59;100.00
54262;BME280;40174;52.364;6.452;2023-02-04T09:58:53;103389.66;;;5.63;100.00
54262;BME280;40174;52.364;6.452;2023-02-04T10:01:20;103402.63;;;5.69;100.00
54262;BME280;40174;52.364;6.452;2023-02-04T10:03:48;103399.91;;;5.75;100.00
54262;BME280;40174;52.364;6.452;2023-02-04T10:06:17;103407.66;;;5.81;100.00
54262;BME280;40174;52.364;6.452;2023-02-04T10:08:47;103412.81;;;5.88;100.00
54262;BME280;40174;52.364;6.452;2023-02-04T10:11:15;103420.59;;;5.91;100.00
54262;BME280;40174;52.364;6.452;2023-02-04T10:13:45;103422.31;;;5.95;100.00
54262;BME280;40174;52.364;6.452;2023-02-04T10:16:16;103424.03;;;5.96;100.00
54262;BME280;40174;52.364;6.452;2023-02-04T10:18:44;103415.31;;;5.95;100.00
54262;BME280;40174;52.364;6.452;2023-02-04T10:21:14;103416.22;;;5.94;100.00
54262;BME280;40174;52.364;6.452;2023-02-04T10:23:43;103422.31;;;5.95;100.00
54262;BME280;40174;52.364;6.452;2023-02-04T10:26:13;103422.25;;;5.98;100.00
54262;BME280;40174;52.364;6.452;2023-02-04T10:28:40;103424.84;;;5.99;100.00
54262;BME280;40174;52.364;6.452;2023-02-04T10:31:26;103413.34;;;6.05;100.00
54262;BME280;40174;52.364;6.452;2023-02-04T10:34:01;103415.00;;;6.09;100.00
54262;BME280;40174;52.364;6.452;2023-02-04T10:36:27;103421.91;;;6.15;100.00
54262;BME280;40174;52.364;6.452;2023-02-04T10:39:01;103416.50;;;6.22;100.00
54262;BME280;40174;52.364;6.452;2023-02-04T10:41:29;103425.94;;;6.31;100.00
54262;BME280;40174;52.364;6.452;2023-02-04T10:44:05;103425.94;;;6.31;100.00
54262;BME280;40174;52.364;6.452;2023-02-04T10:46:32;103424.06;;;6.38;100.00
54262;BME280;40174;52.364;6.452;2023-02-04T10:48:59;103422.25;;;6.41;100.00
54262;BME280;40174;52.364;6.452;2023-02-04T10:51:25;103425.72;;;6.42;100.00
54262;BME280;40174;52.364;6.452;2023-02-04T10:53:52;103432.75;;;6.41;100.00
54262;BME280;40174;52.364;6.452;2023-02-04T10:56:38;103434.38;;;6.47;100.00
54262;BME280;40174;52.364;6.452;2023-02-04T10:59:05;103440.47;;;6.49;100.00
54262;BME280;40174;52.364;6.452;2023-02-04T11:01:34;103434.94;;;6.61;100.00
54262;BME280;40174;52.364;6.452;2023-02-04T11:04:00;103436.44;;;6.73;100.00
54262;BME280;40174;52.364;6.452;2023-02-04T11:06:27;103443.97;;;6.89;100.00
54262;BME280;40174;52.364;6.452;2023-02-04T11:08:54;103442.69;;;7.05;100.00
54262;BME280;40174;52.364;6.452;2023-02-04T11:11:22;103442.50;;;7.13;100.00
54262;BME280;40174;52.364;6.452;2023-02-04T11:14:00;103439.56;;;7.26;100.00
54262;BME280;40174;52.364;6.452;2023-02-04T11:16:29;103443.50;;;7.44;100.00
54262;BME280;40174;52.364;6.452;2023-02-04T11:18:59;103441.38;;;7.57;100.00
54262;BME280;40174;52.364;6.452;2023-02-04T11:21:27;103450.06;;;7.62;100.00
54262;BME280;40174;52.364;6.452;2023-02-04T11:24:19;103447.91;;;7.77;100.00
54262;BME280;40174;52.364;6.452;2023-02-04T11:26:48;103439.75;;;7.86;100.00
54262;BME280;40174;52.364;6.452;2023-02-04T11:29:36;103435.19;;;7.93;100.00
54262;BME280;40174;52.364;6.452;2023-02-04T11:32:05;103428.84;;;8.00;100.00
54262;BME280;40174;52.364;6.452;2023-02-04T11:34:47;103429.06;;;8.23;100.00
54262;BME280;40174;52.364;6.452;2023-02-04T11:37:35;103431.25;;;8.39;100.00
54262;BME280;40174;52.364;6.452;2023-02-04T11:40:19;103437.56;;;8.63;100.00
54262;BME280;40174;52.364;6.452;2023-02-04T11:42:46;103425.50;;;8.84;100.00
54262;BME280;40174;52.364;6.452;2023-02-04T11:45:17;103430.19;;;9.02;100.00
54262;BME280;40174;52.364;6.452;2023-02-04T11:47:45;103439.63;;;9.09;100.00
54262;BME280;40174;52.364;6.452;2023-02-04T11:50:16;103440.72;;;9.02;100.00
54262;BME280;40174;52.364;6.452;2023-02-04T11:52:44;103453.94;;;9.02;100.00
54262;BME280;40174;52.364;6.452;2023-02-04T11:55:11;103441.63;;;9.01;100.00
54262;BME280;40174;52.364;6.452;2023-02-04T11:57:38;103437.28;;;9.00;100.00
54262;BME280;40174;52.364;6.452;2023-02-04T12:00:12;103434.94;;;8.91;100.00
54262;BME280;40174;52.364;6.452;2023-02-04T12:02:43;103435.22;;;8.82;100.00
54262;BME280;40174;52.364;6.452;2023-02-04T12:05:12;103437.81;;;8.83;100.00
54262;BME280;40174;52.364;6.452;2023-02-04T12:07:40;103437.06;;;8.80;100.00
54262;BME280;40174;52.364;6.452;2023-02-04T12:10:12;103433.63;;;8.76;100.00
54262;BME280;40174;52.364;6.452;2023-02-04T12:12:47;103432.88;;;8.72;100.00
54262;BME280;40174;52.364;6.452;2023-02-04T12:15:15;103432.22;;;8.66;100.00
54262;BME280;40174;52.364;6.452;2023-02-04T12:17:45;103434.06;;;8.62;100.00
54262;BME280;40174;52.364;6.452;2023-02-04T12:20:12;103434.25;;;8.56;100.00
54262;BME280;40174;52.364;6.452;2023-02-04T12:22:39;103421.47;;;8.44;100.00
54262;BME280;40174;52.364;6.452;2023-02-04T12:25:06;103420.75;;;8.37;100.00
54262;BME280;40174;52.364;6.452;2023-02-04T12:27:33;103423.50;;;8.32;100.00
54262;BME280;40174;52.364;6.452;2023-02-04T12:29:59;103427.19;;;8.27;100.00
54262;BME280;40174;52.364;6.452;2023-02-04T12:32:26;103428.16;;;8.23;100.00
54262;BME280;40174;52.364;6.452;2023-02-04T12:34:54;103430.88;;;8.21;100.00
54262;BME280;40174;52.364;6.452;2023-02-04T12:37:20;103434.50;;;8.17;100.00
54262;BME280;40174;52.364;6.452;2023-02-04T12:39:47;103438.06;;;8.16;100.00
54262;BME280;40174;52.364;6.452;2023-02-04T12:42:14;103437.25;;;8.12;100.00
54262;BME280;40174;52.364;6.452;2023-02-04T12:44:40;103441.63;;;8.13;100.00
54262;BME280;40174;52.364;6.452;2023-02-04T12:47:07;103440.00;;;8.09;100.00
54262;BME280;40174;52.364;6.452;2023-02-04T12:49:33;103442.78;;;8.03;100.00
54262;BME280;40174;52.364;6.452;2023-02-04T12:52:04;103441.25;;;7.96;100.00
54262;BME280;40174;52.364;6.452;2023-02-04T12:54:30;103442.13;;;7.95;100.00